Archiv-/Tagesdaten

--Timestamp---	Temp	Chill	HIndex	Humid	Dewpt	Wind	HiWind	WindDir	Rain	Barom	        Solar	ET	UV
--------------	----	-----	------	-----	-----	----	------	-------	----	-----	        -----	--	--
20090321 00:05	-1.7	-1.7	-1.7	81	-4.5	0	0	67	0.00	1029.431	0	0.000	0
20090321 00:10	-1.7	-1.7	-1.7	81	-4.5	0	3	67	0.00	1029.330	0	0.000	0
20090321 00:15	-1.8	-1.8	-1.8	81	-4.6	0	2	67	0.00	1029.330	0	0.000	0
20090321 00:20	-1.8	-1.8	-1.8	82	-4.4	0	0	67	0.00	1029.262	0	0.000	0
20090321 00:25	-1.8	-1.8	-1.8	82	-4.4	0	0	67	0.00	1029.262	0	0.000	0
20090321 00:30	-1.8	-1.8	-1.8	82	-4.4	0	0	67	0.00	1029.228	0	0.000	0
20090321 00:35	-1.8	-1.8	-1.8	82	-4.5	0	0	67	0.00	1029.194	0	0.000	0
20090321 00:40	-1.9	-1.9	-1.9	82	-4.5	0	0	67	0.00	1029.228	0	0.000	0
20090321 00:45	-1.9	-1.9	-1.9	82	-4.5	0	0	67	0.00	1029.126	0	0.000	0
20090321 00:50	-1.9	-1.9	-1.9	82	-4.6	0	0	67	0.00	1029.093	0	0.000	0
20090321 00:55	-2.0	-2.0	-2.0	82	-4.7	0	0	67	0.00	1029.025	0	0.000	0
20090321 01:00	-2.1	-2.1	-2.1	82	-4.7	0	0	67	0.00	1029.025	0	0.000	0
20090321 01:05	-2.2	-2.2	-2.2	82	-4.8	0	0	67	0.00	1029.059	0	0.000	0
20090321 01:10	-2.2	-2.2	-2.2	83	-4.7	0	0	67	0.00	1029.059	0	0.000	0
20090321 01:15	-2.2	-2.2	-2.2	83	-4.7	0	0	67	0.00	1029.059	0	0.000	0
20090321 01:20	-2.2	-2.2	-2.2	83	-4.7	0	0	67	0.00	1028.957	0	0.000	0
20090321 01:25	-2.3	-2.3	-2.3	83	-4.8	0	0	67	0.00	1028.923	0	0.000	0
20090321 01:30	-2.4	-2.4	-2.4	83	-4.9	0	3	67	0.00	1028.923	0	0.000	0
20090321 01:35	-2.4	-2.4	-2.4	84	-4.8	0	2	67	0.00	1028.923	0	0.000	0
20090321 01:40	-2.5	-2.5	-2.5	84	-4.8	0	2	67	0.00	1028.855	0	0.000	0
20090321 01:45	-2.6	-2.6	-2.6	85	-4.7	0	2	67	0.00	1028.855	0	0.000	0
20090321 01:50	-2.6	-2.6	-2.6	85	-4.7	0	2	67	0.00	1028.754	0	0.000	0
20090321 01:55	-2.6	-2.6	-2.6	85	-4.7	0	0	67	0.00	1028.788	0	0.000	0
20090321 02:00	-2.6	-2.6	-2.6	85	-4.7	0	0	67	0.00	1028.686	0	0.000	0
20090321 02:05	-2.5	-2.5	-2.5	85	-4.7	0	2	67	0.00	1028.686	0	0.000	0
20090321 02:10	-2.5	-2.5	-2.5	85	-4.7	0	0	67	0.00	1028.618	0	0.000	0
20090321 02:15	-2.5	-2.5	-2.5	86	-4.5	0	0	67	0.00	1028.618	0	0.000	0
20090321 02:20	-2.5	-2.5	-2.5	86	-4.5	0	0	67	0.00	1028.551	0	0.000	0
20090321 02:25	-2.5	-2.5	-2.5	86	-4.5	0	3	67	0.00	1028.585	0	0.000	0
20090321 02:30	-2.5	-2.5	-2.5	86	-4.5	2	5	67	0.00	1028.585	0	0.000	0
20090321 02:35	-2.5	-2.5	-2.5	86	-4.5	0	3	67	0.00	1028.517	0	0.000	0
20090321 02:40	-2.5	-2.5	-2.5	86	-4.5	0	3	67	0.00	1028.483	0	0.000	0
20090321 02:45	-2.5	-2.5	-2.5	86	-4.5	2	3	67	0.00	1028.449	0	0.000	0
20090321 02:50	-2.5	-2.5	-2.5	86	-4.5	2	3	67	0.00	1028.381	0	0.000	0
20090321 02:55	-2.6	-2.6	-2.6	86	-4.6	0	3	67	0.00	1028.381	0	0.000	0
20090321 03:00	-2.6	-2.6	-2.6	86	-4.6	2	3	67	0.00	1028.314	0	0.000	0
20090321 03:05	-2.6	-2.6	-2.6	86	-4.6	2	3	67	0.00	1028.381	0	0.000	0
20090321 03:10	-2.6	-2.6	-2.6	86	-4.6	2	3	67	0.00	1028.415	0	0.000	0
20090321 03:15	-2.7	-2.7	-2.7	87	-4.5	2	5	67	0.00	1028.381	0	0.000	0
20090321 03:20	-2.7	-2.7	-2.7	87	-4.5	0	5	67	0.00	1028.314	0	0.000	0
20090321 03:25	-2.7	-2.7	-2.7	87	-4.6	3	6	45	0.00	1028.314	0	0.000	0
20090321 03:30	-2.7	-2.7	-2.7	87	-4.6	3	5	22	0.00	1028.280	0	0.000	0
20090321 03:35	-2.7	-2.7	-2.7	87	-4.6	3	5	22	0.00	1028.280	0	0.000	0
20090321 03:40	-2.8	-2.8	-2.8	87	-4.6	3	5	22	0.00	1028.280	0	0.000	0
20090321 03:45	-2.8	-2.8	-2.8	87	-4.6	3	5	0	0.00	1028.246	0	0.000	0
20090321 03:50	-2.8	-2.8	-2.8	87	-4.7	3	5	22	0.00	1028.212	0	0.000	0
20090321 03:55	-2.9	-2.9	-2.9	87	-4.7	2	5	22	0.00	1028.178	0	0.000	0
20090321 04:00	-2.9	-2.9	-2.9	87	-4.8	2	5	22	0.00	1028.178	0	0.000	0
20090321 04:05	-3.0	-3.0	-3.0	87	-4.9	3	5	22	0.00	1028.110	0	0.000	0
20090321 04:10	-3.1	-3.1	-3.1	87	-4.9	2	5	0	0.00	1028.043	0	0.000	0
20090321 04:15	-3.1	-3.1	-3.1	87	-4.9	3	5	0	0.00	1028.043	0	0.000	0
20090321 04:20	-3.2	-3.2	-3.2	87	-5.0	3	6	22	0.00	1028.178	0	0.000	0
20090321 04:25	-3.2	-3.2	-3.2	87	-5.0	3	5	22	0.00	1028.178	0	0.000	0
20090321 04:30	-3.2	-3.2	-3.2	87	-5.0	2	5	45	0.00	1028.178	0	0.000	0
20090321 04:35	-3.2	-3.2	-3.2	87	-5.1	2	5	22	0.00	1028.280	0	0.000	0
20090321 04:40	-3.3	-3.3	-3.3	87	-5.1	2	5	22	0.00	1028.246	0	0.000	0
20090321 04:45	-3.3	-3.3	-3.3	87	-5.2	3	6	22	0.00	1028.280	0	0.000	0
20090321 04:50	-3.4	-3.4	-3.4	87	-5.2	3	5	22	0.00	1028.246	0	0.000	0
20090321 04:55	-3.4	-3.4	-3.4	87	-5.3	3	5	22	0.00	1028.280	0	0.000	0
20090321 05:00	-3.4	-3.4	-3.4	87	-5.3	2	5	22	0.00	1028.246	0	0.000	0
20090321 05:05	-3.4	-3.4	-3.4	88	-5.1	2	3	22	0.00	1028.348	0	0.000	0
20090321 05:10	-3.4	-3.4	-3.4	88	-5.1	2	3	22	0.00	1028.348	0	0.000	0
20090321 05:15	-3.4	-3.4	-3.4	88	-5.1	2	5	22	0.00	1028.348	0	0.000	0
20090321 05:20	-3.4	-3.4	-3.4	88	-5.1	2	5	22	0.00	1028.280	0	0.000	0
20090321 05:25	-3.3	-3.3	-3.3	88	-5.0	2	3	22	0.00	1028.314	0	0.000	0
20090321 05:30	-3.3	-3.3	-3.3	88	-5.0	2	5	22	0.00	1028.348	0	0.000	0
20090321 05:35	-3.3	-3.3	-3.3	88	-5.0	2	5	22	0.00	1028.348	0	0.000	0
20090321 05:40	-3.2	-3.2	-3.2	88	-4.9	2	3	22	0.00	1028.381	0	0.000	0
20090321 05:45	-3.2	-3.2	-3.2	88	-4.9	2	3	22	0.00	1028.381	0	0.000	0
20090321 05:50	-3.2	-3.2	-3.2	88	-4.9	3	6	22	0.00	1028.415	0	0.000	0
20090321 05:55	-3.2	-3.2	-3.2	88	-4.9	3	6	22	0.00	1028.415	0	0.000	0
20090321 06:00	-3.2	-3.2	-3.2	88	-4.9	5	8	0	0.00	1028.381	0	0.000	0
20090321 06:05	-3.2	-3.2	-3.2	88	-4.9	5	6	22	0.00	1028.585	0	0.000	0
20090321 06:10	-3.2	-3.2	-3.2	88	-4.9	5	8	22	0.00	1028.551	0	0.000	0
20090321 06:15	-3.2	-3.2	-3.2	88	-4.9	3	6	45	0.00	1028.686	0	0.000	0
20090321 06:20	-3.2	-3.2	-3.2	88	-4.9	3	6	45	0.00	1028.618	1	0.000	0
20090321 06:25	-3.1	-3.1	-3.1	88	-4.8	3	6	45	0.00	1028.652	6	0.000	0
20090321 06:30	-3.1	-3.1	-3.1	88	-4.8	3	6	45	0.00	1028.585	10	0.000	0
20090321 06:35	-3.0	-3.0	-3.0	88	-4.7	3	5	45	0.00	1028.652	12	0.000	0
20090321 06:40	-3.0	-3.0	-3.0	88	-4.7	3	5	45	0.00	1028.686	14	0.000	0
20090321 06:45	-2.9	-2.9	-2.9	87	-4.8	3	5	45	0.00	1028.686	19	0.000	0
20090321 06:50	-2.9	-2.9	-2.9	87	-4.8	2	5	45	0.00	1028.754	24	0.000	0
20090321 06:55	-2.9	-2.9	-2.9	88	-4.6	2	3	45	0.00	1028.788	31	0.000	0
20090321 07:00	-2.8	-2.8	-2.8	87	-4.7	0	3	45	0.00	1028.822	39	0.000	0
20090321 07:05	-2.8	-2.8	-2.8	87	-4.6	0	3	45	0.00	1028.957	42	0.000	0
20090321 07:10	-2.7	-2.7	-2.7	87	-4.6	2	3	45	0.00	1029.025	43	0.000	0
20090321 07:15	-2.7	-2.7	-2.7	87	-4.5	0	0	45	0.00	1029.025	42	0.000	0
20090321 07:20	-2.6	-2.6	-2.6	87	-4.4	0	3	45	0.00	1029.025	44	0.000	0
20090321 07:25	-2.4	-2.4	-2.4	87	-4.3	0	3	45	0.00	1028.889	47	0.000	0
20090321 07:30	-2.4	-2.4	-2.4	86	-4.5	0	3	45	0.00	1028.889	41	0.000	0
20090321 07:35	-2.4	-2.4	-2.4	86	-4.4	2	3	45	0.00	1028.889	43	0.000	0
20090321 07:40	-2.3	-2.3	-2.3	86	-4.4	0	2	45	0.00	1028.889	47	0.000	0
20090321 07:45	-2.3	-2.3	-2.3	86	-4.4	2	5	67	0.00	1028.855	51	0.000	0
20090321 07:50	-2.3	-2.3	-2.3	86	-4.3	2	5	67	0.00	1028.822	54	0.000	0
20090321 07:55	-2.2	-2.2	-2.2	86	-4.2	3	5	67	0.00	1028.855	54	0.000	0
20090321 08:00	-2.1	-2.1	-2.1	86	-4.1	3	5	67	0.00	1028.923	54	0.020	0
20090321 08:05	-2.0	-2.0	-2.0	85	-4.2	5	6	67	0.00	1028.923	50	0.000	0
20090321 08:10	-2.1	-2.1	-2.1	85	-4.2	3	6	67	0.00	1028.991	53	0.000	0
20090321 08:15	-2.0	-2.0	-2.0	85	-4.2	3	6	67	0.00	1028.957	54	0.000	0
20090321 08:20	-1.9	-1.9	-1.9	85	-4.1	3	6	67	0.00	1028.957	68	0.000	0
20090321 08:25	-1.7	-1.7	-1.7	85	-3.9	3	6	67	0.00	1028.957	65	0.000	1
20090321 08:30	-1.6	-1.6	-1.6	83	-4.1	2	5	90	0.00	1029.025	60	0.000	1
20090321 08:35	-1.5	-1.5	-1.5	82	-4.2	3	6	45	0.00	1029.059	63	0.000	1
20090321 08:40	-1.3	-1.3	-1.3	83	-3.8	3	6	157	0.00	1028.991	63	0.000	1
20090321 08:45	-1.2	-1.2	-1.2	81	-4.0	3	8	157	0.00	1028.957	66	0.000	1
20090321 08:50	-1.1	-1.1	-1.1	80	-4.1	3	6	157	0.00	1028.991	75	0.000	1
20090321 08:55	-0.9	-0.9	-0.9	79	-4.1	3	10	112	0.00	1029.025	81	0.000	1
20090321 09:00	-0.9	-0.9	-0.9	79	-4.1	3	5	112	0.00	1029.025	75	0.020	1
20090321 09:05	-0.8	-0.8	-0.8	78	-4.2	2	6	135	0.00	1029.059	76	0.000	1
20090321 09:10	-0.7	-0.7	-0.7	78	-4.0	2	5	67	0.00	1029.025	82	0.000	1
20090321 09:15	-0.6	-0.6	-0.6	76	-4.3	3	6	67	0.00	1029.059	89	0.000	1
20090321 09:20	-0.6	-0.6	-0.6	75	-4.4	2	5	67	0.00	1029.059	123	0.000	1
20090321 09:25	-0.4	-0.4	-0.4	72	-4.8	5	11	135	0.00	1029.093	116	0.000	1
20090321 09:30	-0.2	-0.2	-0.2	70	-5.0	5	10	112	0.00	1029.093	111	0.000	1
20090321 09:35	0.0	0.0	0.0	71	-4.6	2	5	157	0.00	1029.160	106	0.000	1
20090321 09:40	0.2	0.2	0.2	70	-4.6	3	8	67	0.00	1029.160	91	0.000	1
20090321 09:45	0.2	0.2	0.2	68	-5.0	5	10	67	0.00	1029.194	88	0.000	1
20090321 09:50	0.3	0.3	0.3	68	-4.9	3	8	90	0.00	1029.093	89	0.000	1
20090321 09:55	0.4	0.4	0.4	67	-5.0	3	8	135	0.00	1029.025	91	0.000	1
20090321 10:00	0.6	0.6	0.6	66	-5.0	3	10	157	0.00	1029.025	85	0.040	1
20090321 10:05	0.6	0.6	0.6	65	-5.3	0	3	112	0.00	1029.093	96	0.000	1
20090321 10:10	0.6	0.6	0.6	63	-5.7	5	10	45	0.00	1029.025	109	0.000	2
20090321 10:15	0.3	-1.8	0.3	62	-6.1	6	10	67	0.00	1029.025	102	0.000	2
20090321 10:20	0.2	0.2	0.2	63	-6.0	3	6	90	0.00	1029.093	131	0.000	2
20090321 10:25	0.4	0.4	0.4	63	-5.8	5	8	67	0.00	1029.160	134	0.000	2
20090321 10:30	0.5	0.5	0.5	63	-5.7	5	8	45	0.00	1029.160	161	0.000	2
20090321 10:35	0.6	0.6	0.6	62	-5.8	3	6	90	0.00	1029.228	678	0.000	2
20090321 10:40	0.9	0.9	0.9	61	-5.8	2	8	90	0.00	1029.093	685	0.000	2
20090321 10:45	1.2	1.2	1.2	60	-5.7	5	11	157	0.00	1029.160	329	0.000	2
20090321 10:50	1.4	-0.6	1.4	60	-5.5	6	16	135	0.00	1029.025	433	0.000	2
20090321 10:55	1.6	1.6	1.6	60	-5.4	3	8	112	0.00	1029.160	803	0.000	3
20090321 11:00	1.6	1.6	1.6	62	-4.9	3	10	22	0.00	1029.093	443	0.100	2
20090321 11:05	1.6	1.6	1.6	59	-5.6	5	10	45	0.00	1028.991	391	0.000	2
20090321 11:10	1.4	-0.6	1.4	62	-5.1	6	14	45	0.00	1028.991	294	0.000	2
20090321 11:15	1.3	-0.6	1.3	59	-5.8	6	10	22	0.00	1029.160	318	0.000	2
20090321 11:20	1.3	1.3	1.3	60	-5.6	5	14	22	0.00	1029.126	294	0.000	2
20090321 11:25	1.3	1.3	1.3	59	-5.8	5	8	22	0.00	1029.126	212	0.000	1
20090321 11:30	1.3	1.3	1.3	57	-6.2	5	10	22	0.00	1029.228	161	0.000	1
20090321 11:35	1.3	-0.7	1.3	54	-7.0	6	10	67	0.00	1029.262	170	0.000	1
20090321 11:40	1.2	1.2	1.2	55	-6.8	5	11	45	0.00	1029.262	233	0.000	2
20090321 11:45	1.3	1.3	1.3	55	-6.7	5	10	22	0.00	1029.228	270	0.000	2
20090321 11:50	1.4	1.4	1.4	54	-6.9	5	11	135	0.00	1029.160	335	0.000	2
20090321 11:55	1.6	1.6	1.6	54	-6.7	3	10	67	0.00	1029.025	209	0.000	2
20090321 12:00	1.4	1.4	1.4	53	-7.1	3	8	90	0.00	1028.957	214	0.080	2
20090321 12:05	1.4	1.4	1.4	53	-7.1	5	10	67	0.00	1029.059	240	0.000	2
20090321 12:10	1.4	1.4	1.4	53	-7.1	3	8	135	0.00	1029.093	258	0.000	2
20090321 12:15	1.7	1.7	1.7	50	-7.6	2	5	67	0.00	1029.025	353	0.000	2
20090321 12:20	1.8	1.8	1.8	54	-6.5	3	5	67	0.00	1028.957	543	0.000	3
20090321 12:25	2.0	2.0	2.0	51	-7.1	3	6	67	0.00	1028.788	573	0.000	3
20090321 12:30	2.2	2.2	2.2	51	-6.9	2	6	90	0.00	1028.822	405	0.000	3
20090321 12:35	2.2	2.2	2.2	50	-7.1	2	6	67	0.00	1028.754	296	0.000	3
20090321 12:40	2.6	2.6	2.6	51	-6.5	5	11	135	0.00	1028.686	719	0.000	3
20090321 12:45	2.7	2.7	2.7	47	-7.5	3	8	67	0.00	1028.652	741	0.000	3
20090321 12:50	2.6	2.6	2.6	47	-7.6	2	5	112	0.00	1028.618	337	0.000	2
20090321 12:55	2.5	2.5	2.5	48	-7.4	3	10	112	0.00	1028.585	659	0.000	3
20090321 13:00	2.8	2.8	2.8	48	-7.1	2	5	112	0.00	1028.517	815	0.160	3
20090321 13:05	3.1	3.1	3.1	43	-8.3	2	6	135	0.00	1028.449	779	0.000	3
20090321 13:10	3.2	3.2	3.2	44	-7.9	2	8	270	0.00	1028.415	773	0.000	3
20090321 13:15	3.5	3.5	3.5	42	-8.2	5	14	112	0.00	1028.449	346	0.000	3
20090321 13:20	3.2	3.2	3.2	43	-8.1	3	8	180	0.00	1028.348	542	0.000	2
20090321 13:25	3.3	3.3	3.3	46	-7.2	2	6	180	0.00	1028.280	361	0.000	2
20090321 13:30	3.4	3.4	3.4	47	-6.8	5	11	0	0.00	1028.246	652	0.000	3
20090321 13:35	3.4	1.3	3.4	48	-6.5	8	18	22	0.00	1028.110	722	0.000	2
20090321 13:40	3.4	3.4	3.4	49	-6.3	3	10	67	0.00	1028.212	747	0.000	2
20090321 13:45	3.7	3.7	3.7	48	-6.3	3	10	45	0.00	1028.009	781	0.000	2
20090321 13:50	3.9	2.3	3.9	50	-5.6	6	10	45	0.00	1027.975	326	0.000	2
20090321 13:55	3.7	2.1	3.7	51	-5.5	6	10	0	0.00	1027.873	259	0.000	2
20090321 14:00	3.2	3.2	3.2	51	-5.9	5	11	315	0.00	1028.043	213	0.180	2
20090321 14:05	2.9	0.2	2.9	51	-6.2	10	16	22	0.00	1028.043	237	0.000	2
20090321 14:10	2.7	0.5	2.7	52	-6.1	8	16	22	0.00	1028.077	271	0.000	2
20090321 14:15	2.9	1.2	2.9	53	-5.7	6	10	0	0.00	1028.144	454	0.000	2
20090321 14:20	3.1	3.1	3.1	52	-5.8	5	14	337	0.00	1028.110	734	0.000	2
20090321 14:25	3.2	3.2	3.2	53	-5.4	3	8	337	0.00	1028.077	329	0.000	2
20090321 14:30	3.4	3.4	3.4	50	-6.0	5	10	315	0.00	1028.077	291	0.000	2
20090321 14:35	3.3	3.3	3.3	50	-6.1	5	10	315	0.00	1028.144	281	0.000	1
20090321 14:40	3.2	3.2	3.2	50	-6.2	3	6	292	0.00	1028.144	226	0.000	1
20090321 14:45	2.9	2.9	2.9	49	-6.7	5	8	45	0.00	1028.043	315	0.000	1
20090321 14:50	2.8	2.8	2.8	50	-6.6	5	8	45	0.00	1028.043	213	0.000	1
20090321 14:55	2.6	0.8	2.6	48	-7.3	6	14	22	0.00	1028.043	205	0.000	1
20090321 15:00	2.6	2.6	2.6	50	-6.8	3	10	45	0.00	1027.975	196	0.120	1
20090321 15:05	2.7	2.7	2.7	50	-6.7	3	8	337	0.00	1027.941	168	0.000	1
20090321 15:10	2.8	2.8	2.8	49	-6.8	5	11	315	0.00	1027.941	178	0.000	1
20090321 15:15	2.9	2.9	2.9	51	-6.2	3	8	315	0.00	1027.873	174	0.000	1
20090321 15:20	3.0	3.0	3.0	48	-6.9	2	6	292	0.00	1027.907	180	0.000	1
20090321 15:25	2.9	2.9	2.9	49	-6.8	2	8	22	0.00	1027.873	171	0.000	1
20090321 15:30	2.9	2.9	2.9	46	-7.5	3	11	315	0.00	1027.806	227	0.000	1
20090321 15:35	3.2	3.2	3.2	46	-7.3	2	5	270	0.00	1027.704	174	0.000	1
20090321 15:40	3.2	3.2	3.2	45	-7.6	5	8	225	0.00	1027.704	157	0.000	1
20090321 15:45	3.3	3.3	3.3	45	-7.5	3	6	225	0.00	1027.636	183	0.000	1
20090321 15:50	3.4	3.4	3.4	46	-7.1	2	8	247	0.00	1027.636	214	0.000	1
20090321 15:55	3.5	3.5	3.5	45	-7.3	0	2	247	0.00	1027.569	246	0.000	1
20090321 16:00	3.5	3.5	3.5	45	-7.3	0	0	247	0.00	1027.501	246	0.060	1
20090321 16:05	3.5	3.5	3.5	45	-7.3	0	0	247	0.00	1027.501	246	0.060	1
20090321 16:10	3.5	3.5	3.5	45	-7.3	0	0	247	0.00	1027.501	246	0.060	1
20090321 16:15	3.5	3.5	3.5	45	-7.3	0	0	247	0.00	1027.501	246	0.060	1
20090321 16:20	3.3	3.3	3.3	46	-7.2	2	6	157	0.00	1027.433	128	0.000	1
20090321 16:25	3.4	3.4	3.4	45	-7.4	2	5	180	0.00	1027.365	154	0.000	1
20090321 16:30	3.5	3.5	3.5	45	-7.3	0	5	180	0.00	1027.365	167	0.000	0
20090321 16:35	3.6	3.6	3.6	45	-7.3	2	6	180	0.00	1027.332	117	0.000	0
20090321 16:40	3.5	3.5	3.5	44	-7.6	2	10	202	0.00	1027.332	122	0.000	0
20090321 16:45	3.4	3.4	3.4	44	-7.7	0	3	180	0.00	1027.332	84	0.000	0
20090321 16:50	3.3	3.3	3.3	45	-7.5	0	3	157	0.00	1027.332	130	0.000	0
20090321 16:55	3.3	3.3	3.3	45	-7.5	0	3	157	0.00	1027.332	128	0.000	0
20090321 17:00	3.4	3.4	3.4	44	-7.7	0	3	180	0.00	1027.298	138	0.040	0
20090321 17:05	3.5	3.5	3.5	44	-7.6	0	5	180	0.00	1027.298	106	0.000	0
20090321 17:10	3.5	3.5	3.5	44	-7.6	0	3	180	0.00	1027.298	109	0.000	0
20090321 17:15	3.6	3.6	3.6	44	-7.5	0	2	180	0.00	1027.298	112	0.000	0
20090321 17:20	3.7	3.7	3.7	44	-7.4	0	5	202	0.00	1027.264	109	0.000	0
20090321 17:25	3.6	3.6	3.6	44	-7.5	3	6	225	0.00	1027.298	99	0.000	0
20090321 17:30	3.3	3.3	3.3	44	-7.8	2	5	225	0.00	1027.298	81	0.000	0
20090321 17:35	3.2	3.2	3.2	44	-7.9	2	5	225	0.00	1027.298	65	0.000	0
20090321 17:40	3.2	3.2	3.2	44	-7.9	0	3	225	0.00	1027.332	63	0.000	0
20090321 17:45	3.2	3.2	3.2	44	-7.9	3	5	225	0.00	1027.298	46	0.000	0
20090321 17:50	3.2	3.2	3.2	45	-7.6	2	5	225	0.00	1027.298	33	0.000	0
20090321 17:55	3.0	3.0	3.0	46	-7.5	2	5	225	0.00	1027.399	28	0.000	0
20090321 18:00	2.8	2.8	2.8	46	-7.6	2	5	225	0.00	1027.501	24	0.040	0
20090321 18:05	2.7	2.7	2.7	47	-7.5	2	3	225	0.00	1027.264	20	0.000	0
20090321 18:10	2.7	2.7	2.7	47	-7.5	0	3	225	0.00	1027.264	16	0.000	0
20090321 18:15	2.6	2.6	2.6	47	-7.6	0	0	225	0.00	1027.298	13	0.000	0
20090321 18:20	2.4	2.4	2.4	47	-7.7	0	2	225	0.00	1027.399	9	0.000	0
20090321 18:25	2.3	2.3	2.3	48	-7.5	0	0	225	0.00	1027.332	6	0.000	0
20090321 18:30	2.2	2.2	2.2	48	-7.7	0	3	225	0.00	1027.433	2	0.000	0
20090321 18:35	2.1	2.1	2.1	50	-7.3	2	6	225	0.00	1027.365	0	0.000	0
20090321 18:40	1.9	1.9	1.9	50	-7.4	0	3	225	0.00	1027.399	0	0.000	0
20090321 18:45	1.8	1.8	1.8	51	-7.2	2	5	225	0.00	1027.399	0	0.000	0
20090321 18:50	1.7	1.7	1.7	52	-7.1	2	5	225	0.00	1027.501	0	0.000	0
20090321 18:55	1.6	1.6	1.6	53	-7.0	2	6	225	0.00	1027.603	0	0.000	0
20090321 19:00	1.4	1.4	1.4	54	-6.9	2	5	225	0.00	1027.603	0	0.000	0
20090321 19:05	1.3	1.3	1.3	54	-6.9	0	3	225	0.00	1027.670	0	0.000	0
20090321 19:10	1.3	1.3	1.3	54	-7.0	0	3	225	0.00	1027.670	0	0.000	0
20090321 19:15	1.1	1.1	1.1	55	-6.9	0	3	225	0.00	1027.704	0	0.000	0
20090321 19:20	1.0	1.0	1.0	56	-6.8	0	5	225	0.00	1027.704	0	0.000	0
20090321 19:25	0.9	0.9	0.9	57	-6.6	0	3	225	0.00	1027.738	0	0.000	0
20090321 19:30	0.8	0.8	0.8	57	-6.8	0	3	225	0.00	1027.873	0	0.000	0
20090321 19:35	0.6	0.6	0.6	58	-6.7	2	5	225	0.00	1027.873	0	0.000	0
20090321 19:40	0.6	0.6	0.6	59	-6.5	0	0	225	0.00	1027.941	0	0.000	0
20090321 19:45	0.4	0.4	0.4	59	-6.6	0	3	225	0.00	1028.009	0	0.000	0
20090321 19:50	0.3	0.3	0.3	59	-6.7	2	6	225	0.00	1028.077	0	0.000	0
20090321 19:55	0.3	0.3	0.3	59	-6.8	2	5	225	0.00	1028.043	0	0.000	0
20090321 20:00	0.3	0.3	0.3	61	-6.4	0	3	225	0.00	1028.043	0	0.020	0
20090321 20:05	0.2	0.2	0.2	61	-6.4	2	3	225	0.00	1027.907	0	0.000	0
20090321 20:10	0.1	0.1	0.1	61	-6.5	2	5	225	0.00	1027.907	0	0.000	0
20090321 20:15	0.1	0.1	0.1	62	-6.3	2	5	225	0.00	1027.941	0	0.000	0
20090321 20:20	-0.1	-0.1	-0.1	63	-6.2	2	5	225	0.00	1027.941	0	0.000	0
20090321 20:25	-0.1	-0.1	-0.1	62	-6.5	2	6	225	0.00	1027.941	0	0.000	0
20090321 20:30	-0.2	-0.2	-0.2	63	-6.4	2	6	225	0.00	1027.975	0	0.000	0
20090321 20:35	-0.3	-0.3	-0.3	63	-6.5	3	6	225	0.00	1027.975	0	0.000	0
20090321 20:40	-0.4	-0.4	-0.4	64	-6.4	3	6	225	0.00	1028.110	0	0.000	0
20090321 20:45	-0.6	-0.6	-0.6	65	-6.3	3	6	225	0.00	1028.077	0	0.000	0
20090321 20:50	-0.6	-0.6	-0.6	65	-6.3	2	6	225	0.00	1028.043	0	0.000	0
20090321 20:55	-0.7	-0.7	-0.7	66	-6.2	0	3	225	0.00	1028.043	0	0.000	0
20090321 21:00	-0.7	-0.7	-0.7	66	-6.3	0	3	225	0.00	1027.941	0	0.020	0
20090321 21:05	-0.8	-0.8	-0.8	66	-6.3	0	3	225	0.00	1027.704	0	0.000	0
20090321 21:10	-0.8	-0.8	-0.8	67	-6.2	2	5	225	0.00	1027.738	0	0.000	0
20090321 21:15	-0.9	-0.9	-0.9	66	-6.4	2	6	225	0.00	1027.704	0	0.000	0
20090321 21:20	-0.9	-0.9	-0.9	66	-6.4	3	10	225	0.00	1027.873	0	0.000	0
20090321 21:25	-0.9	-0.9	-0.9	67	-6.3	3	6	202	0.00	1027.840	0	0.000	0
20090321 21:30	-1.1	-1.1	-1.1	67	-6.4	5	11	202	0.00	1027.840	0	0.000	0
20090321 21:35	-1.2	-1.2	-1.2	67	-6.5	3	8	202	0.00	1027.840	0	0.000	0
20090321 21:40	-1.3	-1.3	-1.3	67	-6.6	3	8	202	0.00	1027.840	0	0.000	0
20090321 21:45	-1.3	-1.3	-1.3	68	-6.5	3	8	202	0.00	1027.840	0	0.000	0
20090321 21:50	-1.4	-1.4	-1.4	68	-6.5	3	10	202	0.00	1027.840	0	0.000	0
20090321 21:55	-1.5	-1.5	-1.5	68	-6.6	3	8	180	0.00	1027.873	0	0.000	0
20090321 22:00	-1.6	-1.6	-1.6	69	-6.5	3	8	202	0.00	1027.840	0	0.020	0
20090321 22:05	-1.7	-1.7	-1.7	69	-6.6	2	6	202	0.00	1027.772	0	0.000	0
20090321 22:10	-1.7	-1.7	-1.7	70	-6.5	0	3	180	0.00	1027.772	0	0.000	0
20090321 22:15	-1.8	-1.8	-1.8	70	-6.5	3	10	202	0.00	1027.772	0	0.000	0
20090321 22:20	-1.8	-1.8	-1.8	71	-6.3	3	6	202	0.00	1027.772	0	0.000	0
20090321 22:25	-1.8	-1.8	-1.8	71	-6.4	3	8	202	0.00	1027.772	0	0.000	0
20090321 22:30	-1.9	-1.9	-1.9	71	-6.4	2	8	180	0.00	1027.772	0	0.000	0
20090321 22:35	-1.9	-1.9	-1.9	72	-6.3	2	6	202	0.00	1027.772	0	0.000	0
20090321 22:40	-2.0	-2.0	-2.0	72	-6.4	3	8	202	0.00	1027.772	0	0.000	0
20090321 22:45	-2.1	-2.1	-2.1	72	-6.4	3	11	202	0.00	1027.873	0	0.000	0
20090321 22:50	-2.1	-2.1	-2.1	72	-6.5	3	10	202	0.00	1027.873	0	0.000	0
20090321 22:55	-2.2	-2.2	-2.2	73	-6.3	2	6	180	0.00	1027.840	0	0.000	0
20090321 23:00	-2.3	-2.3	-2.3	73	-6.5	3	8	202	0.00	1027.806	0	0.020	0
20090321 23:05	-2.3	-2.3	-2.3	73	-6.5	3	6	202	0.00	1027.806	0	0.000	0
20090321 23:10	-2.4	-2.4	-2.4	73	-6.6	3	11	202	0.00	1027.840	0	0.000	0
20090321 23:15	-2.5	-2.5	-2.5	74	-6.5	3	11	202	0.00	1027.806	0	0.000	0
20090321 23:20	-2.6	-2.6	-2.6	74	-6.5	5	10	202	0.00	1027.806	0	0.000	0
20090321 23:25	-2.6	-2.6	-2.6	74	-6.6	5	10	202	0.00	1027.806	0	0.000	0
20090321 23:30	-2.7	-2.7	-2.7	74	-6.6	3	10	202	0.00	1027.738	0	0.000	0
20090321 23:35	-2.7	-2.7	-2.7	74	-6.7	5	10	202	0.00	1027.772	0	0.000	0
20090321 23:40	-2.8	-2.8	-2.8	74	-6.8	3	11	202	0.00	1027.704	0	0.000	0
20090321 23:45	-2.8	-2.8	-2.8	74	-6.8	5	10	180	0.00	1027.670	0	0.000	0
20090321 23:50	-2.8	-2.8	-2.8	74	-6.8	3	10	202	0.00	1027.603	0	0.000	0
20090321 23:55	-2.8	-2.8	-2.8	74	-6.8	5	11	202	0.00	1027.535	0	0.000	0
20090321 24:00	-2.8	-2.8	-2.8	74	-6.8	5	10	202	0.00	1027.433	0	0.020	0



Please note the license to use and transfer of this data:
http://creativecommons.org/licenses/by-nc-sa/3.0/deed.en

Bitte beachten sie die Lizenz zur Verwertung und Weitergabe der Daten:
http://creativecommons.org/licenses/by-nc-sa/3.0/deed.de

zurück zur Übersicht der Archivdaten (Monats und Tagesdaten)

Cookies helfen bei der Bereitstellung von Inhalten. Durch die Nutzung dieser Seiten erklärst du dich damit einverstanden, dass Cookies auf deinem Rechner gespeichert werden. Weitere Information